CheckWX is a tool to help pilots better visualize weather data.  It is not intended as a substitute for an official pre-flight weather briefing.

07:45:02 UTC

DAUH TAF
Oued Irara Airport
Hassi Messaoud, Algeria
TAF DAUH 190500Z 1906/2006 06006KT CAVOK BECMG 1907/1910 12010KT PROB30 1910/1916 4000 HZ

Jun-19@
06:00 UTC

Jun-19 @ 06:00 UTC

Jun-19@
07:00 UTC

Jun-19 @ 07:00 UTC

TAF DAUH 190500Z 1906/2006 06006KT CAVOK

Expired

Wind
  • 060° at 6 KTS
Conditions
No significant weather
Cloud Levels
  • No significant clouds

Jun-19@
07:00 UTC

Jun-19 @ 07:00 UTC

Jun-20@
06:00 UTC

Jun-20 @ 06:00 UTC

BECMG 1907/1910 12010KT

Becoming

Becoming Conditions expected by Wed, Jun 19, 2019 @ 10:00 UTC

Wind
  • 120° at 10 KTS
Conditions
No significant weather
Cloud Levels
  • No significant clouds

Jun-19@
10:00 UTC

Jun-19 @ 10:00 UTC

Jun-19@
16:00 UTC

Jun-19 @ 16:00 UTC

PROB30 1910/1916 4000 HZ

Probable - 30% Likelihood

Probable - 30% Likelihood during this time.

Conditions
Haze